Time;durP1;ratioP1;P1;durP2;ratioP2;P2;SDS_P1;SDS_P2;PMS_P1;PMS_P2;Temp;Humidity;BMP_temperature;BMP_pressure;BME280_temperature;BME280_humidity;BME280_pressure;Samples;Min_cycle;Max_cycle;Signal;HPM_P1;HPM_P2
2022/03/19 00:01:00;;;;;;;14.63;6.90;;;;;;;-0.32;60.26;101564.97;5092420;28;20225;-65
2022/03/19 00:03:28;;;;;;;13.80;6.80;;;;;;;-0.42;60.73;101553.09;5093552;28;20448;-59
2022/03/19 00:05:55;;;;;;;10.83;6.10;;;;;;;-0.38;60.89;101552.28;5094663;28;20496;-58
2022/03/19 00:08:22;;;;;;;10.70;5.80;;;;;;;-0.53;61.33;101550.44;5093760;28;20471;-56
2022/03/19 00:10:51;;;;;;;10.60;5.97;;;;;;;-0.54;61.86;101550.44;5092662;28;21012;-56
2022/03/19 00:13:18;;;;;;;11.17;5.90;;;;;;;-0.58;62.16;101553.72;5093553;28;20459;-64
2022/03/19 00:15:45;;;;;;;11.13;5.57;;;;;;;-0.51;61.19;101542.94;5093293;28;20540;-64
2022/03/19 00:18:12;;;;;;;15.20;5.80;;;;;;;-0.69;61.11;101544.38;5092453;28;20447;-56
2022/03/19 00:20:39;;;;;;;13.10;5.87;;;;;;;-0.68;61.51;101546.06;5093297;28;20475;-57
2022/03/19 00:23:06;;;;;;;10.30;5.57;;;;;;;-0.60;61.17;101545.34;5094155;28;20546;-57
2022/03/19 00:25:34;;;;;;;10.50;5.20;;;;;;;-0.66;61.21;101548.59;5092243;28;20499;-66
2022/03/19 00:28:03;;;;;;;14.93;5.97;;;;;;;-0.64;61.77;101541.06;5093319;28;20454;-57
2022/03/19 00:30:29;;;;;;;11.07;5.80;;;;;;;-0.66;62.68;101546.09;5091879;28;20479;-65
2022/03/19 00:32:56;;;;;;;12.13;5.93;;;;;;;-0.66;62.04;101541.06;5092565;28;20455;-66
2022/03/19 00:35:23;;;;;;;14.83;6.80;;;;;;;-0.63;62.04;101537.75;5091827;28;20495;-65
2022/03/19 00:37:51;;;;;;;14.37;6.27;;;;;;;-0.69;61.26;101548.56;5092918;28;20456;-57
2022/03/19 00:40:21;;;;;;;11.23;5.80;;;;;;;-0.51;61.06;101543.78;5093251;28;20482;-65
2022/03/19 00:42:50;;;;;;;10.00;5.80;;;;;;;-0.62;61.22;101549.47;5098052;28;20466;-57
2022/03/19 00:45:18;;;;;;;12.93;6.17;;;;;;;-0.65;61.29;101539.41;5096314;28;20501;-57
2022/03/19 00:47:45;;;;;;;10.17;6.10;;;;;;;-0.72;62.10;101536.81;5096482;28;20455;-65
2022/03/19 00:50:12;;;;;;;12.70;6.83;;;;;;;-0.74;62.07;101535.94;5096931;28;20488;-57
2022/03/19 00:52:40;;;;;;;11.00;6.97;;;;;;;-0.73;61.63;101541.78;5097243;28;20973;-57
2022/03/19 00:55:08;;;;;;;14.60;6.70;;;;;;;-0.72;61.73;101541.00;5097230;28;20857;-57
2022/03/19 00:57:41;;;;;;;11.50;6.20;;;;;;;-0.62;61.71;101539.44;5097347;28;20456;-59
2022/03/19 01:00:11;;;;;;;11.60;6.13;;;;;;;-0.71;62.12;101546.03;5096562;28;20478;-57
2022/03/19 01:02:40;;;;;;;10.83;6.03;;;;;;;-0.69;62.06;101541.88;5096059;28;20521;-57
2022/03/19 01:05:07;;;;;;;11.67;5.90;;;;;;;-0.69;61.94;101538.53;5097036;28;20499;-65
2022/03/19 01:07:41;;;;;;;10.30;5.73;;;;;;;-0.58;61.86;101541.16;5097287;28;20447;-57
2022/03/19 01:10:10;;;;;;;16.83;6.73;;;;;;;-0.53;61.47;101535.38;5096208;28;21000;-65
2022/03/19 01:12:36;;;;;;;13.73;6.37;;;;;;;-0.61;61.86;101536.97;5097393;28;20455;-65
2022/03/19 01:15:04;;;;;;;12.50;6.37;;;;;;;-0.62;61.62;101530.22;5095831;28;20474;-56
2022/03/19 01:17:32;;;;;;;11.93;6.13;;;;;;;-0.56;62.48;101534.47;5096418;28;20467;-57
2022/03/19 01:20:01;;;;;;;12.43;6.07;;;;;;;-0.60;61.34;101528.59;5097631;28;20484;-65
2022/03/19 01:22:28;;;;;;;9.37;5.73;;;;;;;-0.65;62.10;101529.34;5096449;28;20456;-65
2022/03/19 01:24:56;;;;;;;12.10;6.13;;;;;;;-0.60;61.61;101527.75;5096799;28;20507;-65
2022/03/19 01:27:23;;;;;;;12.23;5.80;;;;;;;-0.56;62.22;101534.47;5096213;28;20795;-57
2022/03/19 01:29:51;;;;;;;10.63;6.23;;;;;;;-0.60;62.23;101526.06;5096490;28;20467;-57
2022/03/19 01:32:17;;;;;;;12.13;6.30;;;;;;;-0.73;62.62;101527.59;5096156;28;20455;-65
2022/03/19 01:34:45;;;;;;;10.63;5.90;;;;;;;-0.60;62.62;101528.59;5096781;28;20462;-57
2022/03/19 01:37:13;;;;;;;12.07;5.83;;;;;;;-0.64;62.63;101521.84;5097202;28;20604;-64
2022/03/19 01:39:40;;;;;;;12.07;6.37;;;;;;;-0.75;62.02;101521.69;5095441;28;20455;-65
2022/03/19 01:42:08;;;;;;;12.13;6.30;;;;;;;-0.78;62.48;101519.16;5095182;28;20458;-56
2022/03/19 01:44:35;;;;;;;12.47;6.03;;;;;;;-0.65;62.93;101521.81;5095172;28;20479;-56
2022/03/19 01:47:04;;;;;;;10.30;6.03;;;;;;;-0.61;62.37;101518.50;5094997;28;20474;-56
2022/03/19 01:49:32;;;;;;;12.37;6.50;;;;;;;-0.59;62.85;101519.38;5095456;28;20459;-64
2022/03/19 01:51:59;;;;;;;15.00;6.60;;;;;;;-0.64;62.97;101526.00;5095580;28;20452;-65
2022/03/19 01:54:30;;;;;;;12.73;6.37;;;;;;;-0.62;63.05;101529.38;5096039;28;20673;-56
2022/03/19 01:56:58;;;;;;;11.40;6.53;;;;;;;-0.58;63.23;101526.06;5096525;28;20470;-65
2022/03/19 01:59:27;;;;;;;11.30;6.40;;;;;;;-0.64;63.55;101531.03;5095809;28;20898;-56
2022/03/19 02:01:54;;;;;;;13.83;6.77;;;;;;;-0.56;63.83;101526.94;5097854;28;20452;-64
2022/03/19 02:04:24;;;;;;;16.53;6.90;;;;;;;-0.60;63.86;101532.78;5095541;28;20819;-65
2022/03/19 02:06:51;;;;;;;11.70;6.40;;;;;;;-0.57;64.60;101537.84;5096576;28;21018;-65
2022/03/19 02:09:18;;;;;;;13.47;6.73;;;;;;;-0.49;65.53;101531.25;5096181;28;20451;-65
2022/03/19 02:11:46;;;;;;;15.07;6.93;;;;;;;-0.45;65.97;101527.94;5095558;28;20464;-58
2022/03/19 02:14:13;;;;;;;16.23;6.23;;;;;;;-0.37;64.47;101530.53;5096202;28;20992;-61
2022/03/19 02:16:41;;;;;;;16.40;6.77;;;;;;;-0.35;63.01;101526.34;5095199;28;20222;-57
2022/03/19 02:19:10;;;;;;;12.30;6.60;;;;;;;-0.47;63.92;101519.53;5095679;28;20444;-65
2022/03/19 02:21:42;;;;;;;12.40;6.03;;;;;;;-0.56;64.09;101524.44;5096708;28;20468;-57
2022/03/19 02:26:57;;;;;;;17.20;7.13;;;;;;;-0.62;63.99;101524.34;5094509;28;20482;-57
2022/03/19 02:29:24;;;;;;;15.50;7.37;;;;;;;-0.62;64.75;101524.34;5096257;28;20201;-66
2022/03/19 02:31:54;;;;;;;12.67;6.50;;;;;;;-0.55;65.75;101521.97;5095586;28;20475;-58
2022/03/19 02:34:21;;;;;;;13.20;6.93;;;;;;;-0.47;66.42;101524.53;5094990;28;20822;-65
2022/03/19 02:36:49;;;;;;;16.03;7.10;;;;;;;-0.52;67.40;101527.03;5095116;28;21020;-65
2022/03/19 02:39:22;;;;;;;13.83;6.90;;;;;;;-0.48;69.42;101528.72;5095670;28;20818;-56
2022/03/19 02:41:50;;;;;;;14.97;6.93;;;;;;;-0.53;69.40;101524.47;5097457;28;20463;-57
2022/03/19 02:44:20;;;;;;;14.60;6.67;;;;;;;-0.57;70.02;101527.78;5095234;28;20455;-65
2022/03/19 02:46:48;;;;;;;14.93;7.23;;;;;;;-0.52;69.06;101526.19;5095067;28;20503;-56
2022/03/19 02:49:16;;;;;;;13.77;6.87;;;;;;;-0.49;68.00;101527.06;5095953;28;20444;-56
2022/03/19 02:51:45;;;;;;;14.27;7.50;;;;;;;-0.55;68.56;101521.97;5094683;28;20687;-56
2022/03/19 02:54:15;;;;;;;12.70;6.90;;;;;;;-0.55;69.52;101521.13;5094219;28;20456;-56
2022/03/19 02:56:45;;;;;;;21.23;7.27;;;;;;;-0.56;68.19;101521.91;5095698;28;20476;-56
2022/03/19 02:59:14;;;;;;;15.50;7.70;;;;;;;-0.60;68.62;101530.25;5094945;28;20436;-65
2022/03/19 03:01:41;;;;;;;14.80;7.43;;;;;;;-0.64;69.53;101523.50;5093077;28;20221;-57
2022/03/19 03:04:08;;;;;;;15.17;7.47;;;;;;;-0.59;69.95;101524.41;5094707;28;20444;-57
2022/03/19 03:06:38;;;;;;;12.10;7.20;;;;;;;-0.54;70.04;101523.63;5095202;28;20514;-65
2022/03/19 03:09:05;;;;;;;14.37;6.87;;;;;;;-0.41;68.12;101528.81;5094856;28;20443;-56
2022/03/19 03:11:33;;;;;;;15.17;7.40;;;;;;;-0.36;68.43;101525.53;5096970;28;20460;-59
2022/03/19 03:14:01;;;;;;;14.67;7.37;;;;;;;-0.48;68.22;101522.88;5096106;28;20864;-65
2022/03/19 03:16:28;;;;;;;15.83;7.53;;;;;;;-0.52;68.47;101531.22;5094186;28;20851;-65
2022/03/19 03:18:56;;;;;;;16.07;7.63;;;;;;;-0.43;68.68;101526.28;5095438;28;20483;-56
2022/03/19 03:21:24;;;;;;;16.37;7.13;;;;;;;-0.37;69.18;101536.41;5094908;28;20221;-65
2022/03/19 03:23:51;;;;;;;13.77;6.90;;;;;;;-0.33;68.46;101538.13;5094572;28;20785;-57
2022/03/19 03:26:18;;;;;;;12.87;6.93;;;;;;;-0.35;68.57;101529.75;5093960;28;21025;-64
2022/03/19 03:28:45;;;;;;;18.10;7.80;;;;;;;-0.52;68.85;101532.03;5095744;28;20676;-56
2022/03/19 03:31:13;;;;;;;13.23;7.03;;;;;;;-0.49;70.08;101526.22;5094945;28;20790;-56
2022/03/19 03:33:40;;;;;;;16.67;7.53;;;;;;;-0.47;70.28;101535.47;5095425;28;20987;-56
2022/03/19 03:36:07;;;;;;;13.07;6.93;;;;;;;-0.42;70.50;101534.66;5093774;28;20227;-65
2022/03/19 03:38:34;;;;;;;12.20;6.87;;;;;;;-0.49;70.05;101528.72;5094813;28;20463;-64
2022/03/19 03:41:01;;;;;;;13.67;7.03;;;;;;;-0.43;69.29;101533.81;5095261;28;20476;-65
2022/03/19 03:43:28;;;;;;;10.87;6.43;;;;;;;-0.40;69.44;101531.34;5094585;28;20214;-64
2022/03/19 03:45:55;;;;;;;13.53;7.03;;;;;;;-0.60;68.91;101532.78;5094197;28;20841;-57
2022/03/19 03:48:24;;;;;;;16.37;7.07;;;;;;;-0.53;69.58;101529.50;5095495;28;20973;-64
2022/03/19 03:50:55;;;;;;;16.93;7.27;;;;;;;-0.56;70.63;101530.31;5094573;28;20225;-65
2022/03/19 03:53:24;;;;;;;14.40;7.10;;;;;;;-0.51;71.06;101537.91;5095191;28;20444;-65
2022/03/19 03:55:51;;;;;;;16.63;7.80;;;;;;;-0.49;71.15;101538.78;5095518;28;20483;-56
2022/03/19 03:58:19;;;;;;;14.33;6.90;;;;;;;-0.47;71.05;101537.09;5094094;28;20839;-56
2022/03/19 04:00:46;;;;;;;13.37;7.00;;;;;;;-0.41;72.23;101542.22;5095738;28;20237;-56
2022/03/19 04:03:13;;;;;;;14.33;7.20;;;;;;;-0.50;72.63;101539.59;5094876;28;20452;-56
2022/03/19 04:05:42;;;;;;;15.90;7.77;;;;;;;-0.57;72.69;101535.31;5094048;28;20495;-65
2022/03/19 04:08:08;;;;;;;16.57;7.30;;;;;;;-0.52;72.02;101541.25;5093057;28;20448;-65
2022/03/19 04:10:35;;;;;;;18.67;8.10;;;;;;;-0.46;72.07;101544.69;5093642;28;20632;-56
2022/03/19 04:13:02;;;;;;;13.13;6.97;;;;;;;-0.49;72.22;101538.78;5094392;28;20448;-64
2022/03/19 04:15:29;;;;;;;17.80;8.30;;;;;;;-0.55;72.32;101546.25;5093940;28;20236;-56
2022/03/19 04:17:56;;;;;;;16.27;8.13;;;;;;;-0.65;72.91;101539.41;5095038;28;20444;-65
2022/03/19 04:20:25;;;;;;;15.63;8.37;;;;;;;-0.58;73.90;101541.16;5094465;28;20486;-65
2022/03/19 04:22:54;;;;;;;15.10;8.30;;;;;;;-0.54;74.20;101538.72;5094673;28;20444;-56
2022/03/19 04:25:24;;;;;;;16.97;7.97;;;;;;;-0.53;74.84;101544.56;5093323;28;20491;-56
2022/03/19 04:27:52;;;;;;;16.87;8.60;;;;;;;-0.64;76.29;101548.59;5093096;28;20444;-65
2022/03/19 04:30:21;;;;;;;17.87;8.30;;;;;;;-0.71;76.86;101550.19;5094865;28;20479;-63
2022/03/19 04:32:51;;;;;;;15.07;8.10;;;;;;;-0.89;78.17;101545.78;5094881;28;20852;-65
2022/03/19 04:38:07;;;;;;;18.53;7.93;;;;;;;-0.89;79.39;101549.97;5094758;28;20445;-65
2022/03/19 04:40:36;;;;;;;15.83;7.93;;;;;;;-0.92;79.24;101545.72;5093428;28;20843;-57
2022/03/19 04:43:04;;;;;;;16.33;8.03;;;;;;;-0.82;79.53;101547.53;5092883;28;20845;-56
2022/03/19 04:45:31;;;;;;;16.83;7.63;;;;;;;-0.69;79.57;101548.56;5092628;28;21004;-59
2022/03/19 04:47:59;;;;;;;18.80;7.80;;;;;;;-0.63;79.05;101552.84;5093625;28;20455;-56
2022/03/19 04:50:26;;;;;;;19.43;8.57;;;;;;;-0.52;78.93;101552.16;5093695;28;20475;-56
2022/03/19 04:52:54;;;;;;;13.73;8.00;;;;;;;-0.48;79.06;101548.00;5093815;28;20838;-65
2022/03/19 04:55:22;;;;;;;12.73;7.63;;;;;;;-0.50;79.17;101557.16;5095554;28;20475;-64
2022/03/19 04:57:49;;;;;;;16.30;8.10;;;;;;;-0.43;78.89;101556.44;5095394;28;20448;-58
2022/03/19 05:00:17;;;;;;;16.37;8.30;;;;;;;-0.40;78.89;101553.97;5095151;28;20490;-56
2022/03/19 05:02:45;;;;;;;16.53;7.93;;;;;;;-0.45;78.70;101558.09;5094002;28;20851;-64
2022/03/19 05:05:12;;;;;;;15.87;8.00;;;;;;;-0.38;78.96;101556.47;5094118;28;20468;-56
2022/03/19 05:07:39;;;;;;;16.10;7.73;;;;;;;-0.37;78.58;101556.53;5094641;28;21042;-56
2022/03/19 05:12:56;;;;;;;15.30;6.90;;;;;;;-0.35;74.56;101569.09;5094067;28;20991;-57
2022/03/19 05:15:22;;;;;;;15.50;8.10;;;;;;;-0.38;74.00;101561.50;5094170;28;20480;-65
2022/03/19 05:17:49;;;;;;;13.97;6.97;;;;;;;-0.29;72.83;101570.03;5093605;28;20452;-56
2022/03/19 05:20:16;;;;;;;13.63;7.43;;;;;;;-0.38;72.97;101569.06;5092989;28;20467;-64
2022/03/19 05:22:43;;;;;;;18.57;8.37;;;;;;;-0.12;71.96;101576.91;5092920;28;20452;-57
2022/03/19 05:25:10;;;;;;;12.17;7.07;;;;;;;0.22;70.48;101578.97;5093871;28;20478;-65
2022/03/19 05:27:38;;;;;;;9.87;5.70;;;;;;;0.19;67.95;101568.88;5094933;28;20494;-56
2022/03/19 05:30:08;;;;;;;11.03;6.13;;;;;;;0.13;68.03;101573.84;5096848;28;20537;-56
2022/03/19 05:32:35;;;;;;;14.07;6.20;;;;;;;0.15;68.15;101577.22;5097589;28;20797;-65
2022/03/19 05:35:04;;;;;;;14.17;6.40;;;;;;;0.24;67.45;101570.63;5097000;28;20469;-56
2022/03/19 05:37:32;;;;;;;11.23;5.90;;;;;;;0.25;67.24;101572.28;5097474;28;20447;-62
2022/03/19 05:40:00;;;;;;;11.03;6.57;;;;;;;0.47;68.87;101565.78;5098195;28;20236;-59
2022/03/19 05:42:28;;;;;;;12.40;6.60;;;;;;;0.60;68.25;101570.94;5098015;28;20209;-56
2022/03/19 05:44:56;;;;;;;11.17;6.50;;;;;;;0.99;67.41;101574.63;5096375;28;20481;-56
2022/03/19 05:47:24;;;;;;;14.40;7.00;;;;;;;1.42;66.84;101579.91;5095037;28;20487;-65
2022/03/19 05:49:51;;;;;;;14.30;6.57;;;;;;;1.60;64.27;101579.19;5095570;28;20206;-57
2022/03/19 05:52:18;;;;;;;13.47;6.80;;;;;;;1.95;64.81;101581.84;5095882;28;20646;-65
2022/03/19 05:54:45;;;;;;;13.67;6.83;;;;;;;1.97;63.35;101584.34;5094696;28;20209;-66
2022/03/19 05:57:12;;;;;;;13.97;6.10;;;;;;;2.08;61.69;101581.88;5097583;28;20269;-65
2022/03/19 05:59:40;;;;;;;14.43;7.00;;;;;;;2.25;62.82;101582.75;5096324;28;20214;-57
2022/03/19 06:02:07;;;;;;;17.60;8.90;;;;;;;2.30;60.68;101586.16;5095469;28;20197;-65
2022/03/19 06:04:35;;;;;;;14.80;7.67;;;;;;;2.41;59.13;101584.44;5097410;28;20194;-57
2022/03/19 06:07:02;;;;;;;14.67;6.70;;;;;;;2.23;59.62;101587.78;5096580;28;20229;-57
2022/03/19 06:09:30;;;;;;;10.10;6.27;;;;;;;2.29;58.07;101586.97;5096766;28;20212;-57
2022/03/19 06:11:57;;;;;;;15.33;6.70;;;;;;;2.39;58.31;101587.84;5098014;28;20774;-66
2022/03/19 06:14:25;;;;;;;10.37;5.67;;;;;;;2.30;57.77;101588.66;5097922;28;20212;-57
2022/03/19 06:16:52;;;;;;;9.33;5.67;;;;;;;2.64;57.44;101588.69;5096540;28;20275;-57
2022/03/19 06:19:19;;;;;;;11.40;5.83;;;;;;;2.71;56.01;101590.41;5098476;28;20201;-66
2022/03/19 06:21:48;;;;;;;12.23;5.50;;;;;;;2.51;56.19;101590.38;5097088;28;20710;-65
2022/03/19 06:24:16;;;;;;;9.33;5.20;;;;;;;2.40;56.83;101590.34;5095776;28;20209;-65
2022/03/19 06:26:43;;;;;;;11.13;5.50;;;;;;;2.87;56.02;101592.06;5096056;28;20249;-57
2022/03/19 06:29:10;;;;;;;6.17;4.10;;;;;;;2.48;53.91;101593.75;5099302;28;20691;-64
2022/03/19 06:31:37;;;;;;;10.30;5.43;;;;;;;1.99;54.35;101595.31;5096259;28;20218;-65
2022/03/19 06:34:07;;;;;;;11.07;5.73;;;;;;;2.24;55.04;101594.53;5096132;28;20209;-57
2022/03/19 06:39:19;;;;;;;14.50;5.50;;;;;;;2.94;53.60;101596.28;5095550;28;20781;-65
2022/03/19 06:41:46;;;;;;;9.10;5.10;;;;;;;2.72;54.20;101608.06;5096860;28;20233;-59
2022/03/19 06:44:13;;;;;;;14.20;5.83;;;;;;;3.27;54.18;101607.19;5096973;28;20209;-56
2022/03/19 06:46:40;;;;;;;10.10;5.00;;;;;;;3.23;52.40;101605.53;5094649;28;20248;-56
2022/03/19 06:49:07;;;;;;;11.70;5.80;;;;;;;3.18;53.73;101602.16;5097256;28;20225;-64
2022/03/19 06:51:34;;;;;;;8.87;5.63;;;;;;;3.59;51.50;101603.75;5096076;28;20750;-56
2022/03/19 06:54:01;;;;;;;10.07;5.30;;;;;;;3.85;52.39;101606.19;5098214;28;20198;-63
2022/03/19 06:56:29;;;;;;;10.57;4.70;;;;;;;3.43;49.80;101607.16;5096062;28;20218;-64
2022/03/19 06:58:56;;;;;;;8.47;4.77;;;;;;;2.78;50.75;101612.28;5096186;28;20207;-56
2022/03/19 07:01:23;;;;;;;7.90;5.03;;;;;;;2.49;52.11;101602.16;5099249;28;20249;-55
2022/03/19 07:03:50;;;;;;;10.30;3.63;;;;;;;2.49;50.85;101615.63;5096763;28;20202;-65
2022/03/19 07:06:19;;;;;;;8.20;5.20;;;;;;;2.24;51.20;101623.97;5096274;28;20313;-55
2022/03/19 07:08:46;;;;;;;10.77;4.90;;;;;;;2.23;52.29;101617.25;5098649;28;20210;-55
2022/03/19 07:11:13;;;;;;;9.07;4.97;;;;;;;2.62;52.35;101620.72;5096391;28;20240;-65
2022/03/19 07:13:42;;;;;;;7.97;4.20;;;;;;;2.53;50.95;101618.16;5095215;28;20206;-64
2022/03/19 07:16:09;;;;;;;12.10;5.57;;;;;;;2.37;50.98;101625.69;5096002;28;20270;-64
2022/03/19 07:18:36;;;;;;;7.60;5.00;;;;;;;2.31;52.41;101628.22;5096328;28;20206;-64
2022/03/19 07:21:03;;;;;;;10.53;5.60;;;;;;;2.25;53.03;101623.97;5097025;28;20229;-56
2022/03/19 07:23:30;;;;;;;11.87;5.80;;;;;;;2.12;51.71;101623.94;5095635;28;20209;-56
2022/03/19 07:25:59;;;;;;;8.20;4.57;;;;;;;2.08;52.57;101624.78;5095919;28;20232;-65
2022/03/19 07:28:28;;;;;;;14.47;7.60;;;;;;;2.24;53.35;101629.00;5095162;28;20612;-65
2022/03/19 07:30:57;;;;;;;12.50;5.80;;;;;;;2.74;53.25;101620.72;5095571;28;20261;-58
2022/03/19 07:33:24;;;;;;;12.37;6.63;;;;;;;2.98;50.31;101621.56;5097119;28;20683;-55
2022/03/19 07:35:51;;;;;;;15.53;7.93;;;;;;;3.25;50.03;101621.53;5095209;28;20228;-65
2022/03/19 07:38:18;;;;;;;7.73;4.57;;;;;;;2.88;49.35;101621.56;5094947;28;20221;-56
2022/03/19 07:43:30;;;;;;;8.47;5.17;;;;;;;2.91;49.86;101623.25;5095405;28;20190;-56
2022/03/19 07:45:59;;;;;;;10.20;5.67;;;;;;;3.05;49.13;101625.75;5095951;28;20241;-65
2022/03/19 07:48:26;;;;;;;8.23;5.37;;;;;;;3.36;50.84;101624.88;5094678;28;20233;-64
2022/03/19 07:50:53;;;;;;;10.67;5.97;;;;;;;3.93;48.74;101634.03;5094424;28;20317;-65
2022/03/19 07:53:22;;;;;;;7.70;4.70;;;;;;;3.70;48.17;101632.41;5095048;28;20263;-65
2022/03/19 07:55:50;;;;;;;9.53;5.03;;;;;;;3.42;46.46;101631.63;5094603;28;20229;-56
2022/03/19 07:58:18;;;;;;;9.33;5.33;;;;;;;2.85;49.70;101628.28;5095690;28;20290;-64
2022/03/19 08:00:46;;;;;;;12.67;6.00;;;;;;;3.27;50.55;101637.53;5095154;28;20611;-57
2022/03/19 08:03:14;;;;;;;13.30;5.50;;;;;;;3.59;50.37;101646.75;5095088;28;20679;-64
2022/03/19 08:05:42;;;;;;;12.07;6.40;;;;;;;4.11;48.41;101641.53;5095600;28;20233;-56
2022/03/19 08:08:11;;;;;;;11.03;5.60;;;;;;;4.74;49.06;101642.00;5095787;28;20305;-57
2022/03/19 08:10:39;;;;;;;8.17;4.77;;;;;;;5.35;44.75;101643.19;5095085;28;20230;-65
2022/03/19 08:13:08;;;;;;;10.53;5.87;;;;;;;5.32;47.26;101634.75;5095832;28;20205;-56
2022/03/19 08:15:37;;;;;;;11.13;6.57;;;;;;;4.93;45.86;101642.69;5093742;28;20221;-57
2022/03/19 08:18:06;;;;;;;12.67;6.70;;;;;;;4.32;49.14;101643.09;5094037;28;20194;-65
2022/03/19 08:20:34;;;;;;;13.70;6.90;;;;;;;4.02;51.86;101639.88;5094366;28;20198;-63
2022/03/19 08:23:02;;;;;;;12.50;8.20;;;;;;;4.75;48.54;101643.69;5094324;28;20205;-57
2022/03/19 08:25:29;;;;;;;12.10;6.53;;;;;;;5.10;49.98;101634.97;5094276;28;20522;-57
2022/03/19 08:27:57;;;;;;;11.17;6.03;;;;;;;5.34;49.04;101638.13;5095745;28;20240;-67
2022/03/19 08:30:24;;;;;;;11.23;6.50;;;;;;;5.77;46.57;101641.06;5094262;28;20291;-57
2022/03/19 08:32:50;;;;;;;9.03;5.77;;;;;;;6.21;46.23;101638.88;5095029;28;20237;-58
2022/03/19 08:35:17;;;;;;;9.77;5.97;;;;;;;6.03;44.81;101635.69;5094460;28;20245;-58
2022/03/19 08:37:46;;;;;;;7.97;4.73;;;;;;;6.17;46.27;101639.75;5094945;28;20216;-66
2022/03/19 08:40:15;;;;;;;16.00;9.57;;;;;;;5.47;47.31;101639.69;5095922;28;20611;-67
2022/03/19 08:42:43;;;;;;;21.43;11.17;;;;;;;6.57;45.47;101643.44;5092857;28;20213;-58
2022/03/19 08:45:10;;;;;;;9.80;5.50;;;;;;;6.26;44.80;101637.13;5092911;28;20225;-66
2022/03/19 08:47:37;;;;;;;8.43;4.87;;;;;;;5.96;44.33;101634.09;5094659;28;20241;-58
2022/03/19 08:50:05;;;;;;;9.53;5.40;;;;;;;5.64;45.99;101637.81;5092986;28;20225;-59
2022/03/19 08:52:33;;;;;;;10.37;5.60;;;;;;;5.75;44.17;101640.22;5095501;28;20200;-58
2022/03/19 08:55:02;;;;;;;10.23;5.40;;;;;;;5.45;44.69;101641.41;5093046;28;20214;-58
2022/03/19 08:57:29;;;;;;;11.30;5.77;;;;;;;4.38;44.41;101643.06;5096592;28;20216;-57
2022/03/19 08:59:56;;;;;;;9.13;5.60;;;;;;;4.37;47.24;101641.41;5094355;28;20220;-58
2022/03/19 09:02:23;;;;;;;8.63;5.53;;;;;;;4.70;48.42;101640.34;5097322;28;20327;-66
2022/03/19 09:04:50;;;;;;;9.40;5.80;;;;;;;4.64;47.55;101642.91;5097106;28;20212;-66
2022/03/19 09:07:18;;;;;;;9.47;5.60;;;;;;;4.72;46.91;101633.56;5098297;28;20738;-58
2022/03/19 09:09:53;;;;;;;11.83;6.77;;;;;;;4.91;50.71;101636.78;5097314;28;20559;-58
2022/03/19 09:12:26;;;;;;;10.13;5.53;;;;;;;5.27;47.13;101631.44;5099696;28;20198;-58
2022/03/19 09:14:54;;;;;;;10.17;4.83;;;;;;;4.82;44.99;101648.72;5096571;28;20316;-58
2022/03/19 09:17:21;;;;;;;8.47;5.37;;;;;;;5.22;46.80;101631.47;5097684;28;20198;-66
2022/03/19 09:19:49;;;;;;;13.30;5.17;;;;;;;5.24;47.22;101641.63;5097366;28;20284;-67
2022/03/19 09:22:16;;;;;;;8.87;5.60;;;;;;;5.84;46.72;101634.19;5097223;28;20251;-66
2022/03/19 09:24:44;;;;;;;8.93;5.30;;;;;;;6.12;47.56;101635.59;5098589;28;20210;-67
2022/03/19 09:27:11;;;;;;;9.53;5.00;;;;;;;6.37;44.90;101649.66;5097235;28;20230;-67
2022/03/19 09:29:39;;;;;;;8.57;4.70;;;;;;;5.66;47.12;101643.72;5096535;28;20210;-66
2022/03/19 09:32:07;;;;;;;9.70;5.63;;;;;;;5.79;51.25;101641.88;5097470;28;20214;-58
2022/03/19 09:34:34;;;;;;;9.30;5.93;;;;;;;5.90;44.51;101639.22;5097015;28;20214;-66
2022/03/19 09:37:02;;;;;;;8.23;4.53;;;;;;;5.67;45.10;101637.78;5097453;28;20209;-67
2022/03/19 09:39:29;;;;;;;7.20;5.07;;;;;;;5.18;46.32;101637.44;5096911;28;20210;-60
2022/03/19 09:41:56;;;;;;;9.93;5.43;;;;;;;5.71;46.61;101642.84;5097511;28;20620;-68
2022/03/19 09:44:25;;;;;;;10.07;4.90;;;;;;;5.55;45.23;101642.97;5096221;28;20220;-58
2022/03/19 09:46:54;;;;;;;8.33;4.63;;;;;;;5.66;44.93;101640.34;5097116;28;20271;-67
2022/03/19 09:49:23;;;;;;;9.67;5.37;;;;;;;5.24;47.06;101636.56;5097074;28;20212;-58
2022/03/19 09:51:54;;;;;;;8.17;4.60;;;;;;;5.24;45.31;101636.56;5097729;28;20280;-58
2022/03/19 09:54:22;;;;;;;18.20;9.77;;;;;;;5.14;46.99;101634.06;5096769;28;20209;-59
2022/03/19 09:56:49;;;;;;;9.77;5.70;;;;;;;5.29;49.28;101635.63;5096196;28;20218;-67
2022/03/19 09:59:17;;;;;;;9.13;5.20;;;;;;;5.71;48.67;101627.59;5096961;28;20213;-58
2022/03/19 10:01:46;;;;;;;9.90;5.20;;;;;;;5.58;47.32;101626.88;5097931;28;20230;-59
2022/03/19 10:04:17;;;;;;;9.03;5.53;;;;;;;5.58;46.22;101635.31;5097024;28;20202;-58
2022/03/19 10:09:43;;;;;;;7.40;4.00;;;;;;;5.29;44.12;101633.09;5096639;28;20698;-67
2022/03/19 10:12:15;;;;;;;9.93;5.77;;;;;;;4.75;44.71;101625.94;5097229;28;20580;-58
2022/03/19 10:14:46;;;;;;;9.07;5.43;;;;;;;4.79;47.22;101619.16;5095927;28;20255;-67
2022/03/19 10:17:26;;;;;;;9.47;5.43;;;;;;;4.56;46.07;101631.97;5097213;28;20671;-58
2022/03/19 10:20:00;;;;;;;8.77;5.83;;;;;;;4.55;48.46;101622.72;5095024;28;20222;-66
2022/03/19 10:22:28;;;;;;;9.37;5.87;;;;;;;4.71;46.33;101625.97;5095430;28;20212;-67
2022/03/19 10:24:59;;;;;;;12.27;5.87;;;;;;;4.70;48.33;101620.06;5095718;28;20243;-59
2022/03/19 10:27:26;;;;;;;9.37;5.20;;;;;;;4.89;46.78;101619.94;5096689;28;20249;-67
2022/03/19 10:30:16;;;;;;;11.73;6.30;;;;;;;5.01;47.40;101624.91;5095236;28;20222;-65
2022/03/19 10:32:45;;;;;;;11.47;6.97;;;;;;;5.06;49.60;101618.09;5097057;28;20727;-67
2022/03/19 10:35:29;;;;;;;9.40;5.80;;;;;;;4.84;47.84;101616.59;5095207;28;20218;-58
2022/03/19 10:37:58;;;;;;;12.57;6.63;;;;;;;5.13;46.15;101603.66;5095488;28;20234;-67
2022/03/19 10:40:38;;;;;;;11.60;6.03;;;;;;;5.58;45.01;101617.56;5095054;28;20250;-60
2022/03/19 10:43:08;;;;;;;11.50;6.57;;;;;;;5.58;43.62;101612.50;5095507;28;20566;-58
2022/03/19 10:45:41;;;;;;;9.20;5.60;;;;;;;5.58;45.12;101607.41;5095100;28;20226;-66
2022/03/19 10:48:09;;;;;;;13.20;7.00;;;;;;;5.19;45.71;101619.66;5096872;28;20470;-66
2022/03/19 10:50:40;;;;;;;9.60;5.93;;;;;;;4.73;46.17;101611.59;5096132;28;20240;-67
2022/03/19 10:53:07;;;;;;;11.90;7.10;;;;;;;4.70;48.66;101609.94;5096089;28;20225;-58
2022/03/19 10:55:37;;;;;;;10.77;6.10;;;;;;;5.08;49.11;101603.69;5094942;28;20278;-66
2022/03/19 10:58:05;;;;;;;11.87;6.80;;;;;;;5.24;45.01;101606.13;5096311;28;20204;-58
2022/03/19 11:00:33;;;;;;;12.63;6.63;;;;;;;5.35;48.09;101605.16;5096334;28;20221;-59
2022/03/19 11:03:04;;;;;;;13.43;6.80;;;;;;;5.77;47.07;101597.91;5096001;28;20803;-59
2022/03/19 11:05:35;;;;;;;13.37;7.23;;;;;;;5.67;46.52;101597.19;5094932;28;20233;-58
2022/03/19 11:08:08;;;;;;;15.60;7.00;;;;;;;5.78;46.50;101601.28;5096431;28;20244;-66
2022/03/19 11:10:36;;;;;;;15.20;7.80;;;;;;;5.26;45.16;101606.91;5096195;28;20218;-58
2022/03/19 11:13:05;;;;;;;9.37;4.37;;;;;;;4.72;47.10;101608.22;5095006;28;20202;-58
2022/03/19 11:15:35;;;;;;;14.00;7.43;;;;;;;5.03;50.36;101594.44;5095613;28;20222;-57
2022/03/19 11:18:06;;;;;;;8.70;4.93;;;;;;;4.64;50.01;101609.97;5095132;28;20201;-67
2022/03/19 11:20:34;;;;;;;13.20;6.90;;;;;;;5.06;50.29;101597.81;5095528;28;20218;-58
2022/03/19 11:23:03;;;;;;;14.00;7.40;;;;;;;5.43;50.18;101599.97;5096026;28;20197;-65
2022/03/19 11:25:40;;;;;;;11.73;6.97;;;;;;;5.54;51.19;101604.94;5093646;28;20296;-67
2022/03/19 11:28:10;;;;;;;12.53;6.57;;;;;;;6.08;46.72;101598.41;5094750;28;20233;-58
2022/03/19 11:30:40;;;;;;;11.83;6.90;;;;;;;6.17;45.92;101596.56;5095032;28;20690;-67
2022/03/19 11:33:10;;;;;;;10.70;6.47;;;;;;;6.34;45.41;101585.34;5096226;28;20263;-67
2022/03/19 11:35:39;;;;;;;9.43;6.27;;;;;;;5.74;44.77;101582.72;5095021;28;20213;-58
2022/03/19 11:38:11;;;;;;;13.93;7.47;;;;;;;5.46;47.32;101587.25;5093115;28;20214;-61
2022/03/19 11:40:42;;;;;;;13.07;7.93;;;;;;;5.34;47.75;101577.25;5095181;28;20226;-58
2022/03/19 11:43:10;;;;;;;11.60;6.77;;;;;;;5.84;47.75;101569.03;5093813;28;20292;-67
2022/03/19 11:45:53;;;;;;;12.17;7.23;;;;;;;5.88;47.02;101577.47;5094096;28;20222;-67